This demonstration page uses our WeatherBlox Daily Observations layout. Learn more.

38.89511, -77.03637

Hourly Observations for September 11, 2015

Temp ( °F °C ) Dew Point ( °F °C ) Humidity (%) Winds ( mph kmh ) Pressure ( in mb ) Visibility ( mi km ) Precip ( " mm )
12:52 am 00:52 Cloudy 72 22 63 17 73 73 NNW 10 17 29.77 1008 10 16.09344 0 0
1:52 am 01:52 Cloudy 70 21 61 16 73 73 N 12 19 29.77 1008 10 16.09344 0 0
2:07 am 02:07 Mostly Cloudy 70 21 61 16 73 73 NNW 13 20 29.77 1008 10 16.09344 0 0
2:23 am 02:23 Mostly Cloudy 70 21 61 16 73 73 NNW 13 20 29.77 1008 10 16.09344 0 0
2:52 am 02:52 Mostly Cloudy 70 21 61 16 73 73 NNW 8 13 29.77 1008 10 16.09344 0 0
3:52 am 03:52 Partly Cloudy 68 20 61 16 78 78 NNW 7 11 29.77 1008 10 16.09344 0 0
4:52 am 04:52 Mostly Clear 66 19 61 16 83 83 NW 13 20 29.77 1008 10 16.09344 0 0
5:52 am 05:52 Partly Cloudy 66 19 61 16 83 83 NW 10 17 29.8 1009 10 16.09344 0 0
6:52 am 06:52 Mostly Sunny 64 18 59 15 83 83 NW 8 13 29.83 1010 10 16.09344 0 0
7:52 am 07:52 Partly Cloudy 66 19 59 15 78 78 NNW 10 17 29.83 1010 10 16.09344 0 0
8:52 am 08:52 Partly Cloudy 70 21 61 16 73 73 NNW 10 17 29.85 1011 10 16.09344 0 0
9:52 am 09:52 Partly Cloudy 73 23 61 16 65 65 NNW 10 17 29.85 1011 10 16.09344 0 0
10:52 am 10:52 Partly Cloudy 77 25 61 16 57 57 NW 10 17 29.85 1011 10 16.09344 0 0
11:52 am 11:52 Partly Cloudy 81 27 59 15 48 48 NW 8 13 29.85 1011 10 16.09344 0 0
12:52 pm 12:52 Partly Cloudy 82 28 57 14 42 42 NNW 8 13 29.83 1010 10 16.09344 0 0
1:52 pm 13:52 Sunny 84 29 55 13 37 37 W 6 9 29.83 1010 10 16.09344 0 0
2:52 pm 14:52 Partly Cloudy 84 29 54 12 35 35 WNW 8 13 29.8 1009 10 16.09344 0 0
3:52 pm 15:52 Partly Cloudy 88 31 52 11 29 29 N 6 9 29.8 1009 10 16.09344 0 0
4:52 pm 16:52 Partly Cloudy 84 29 50 10 31 31 Calm 29.8 1009 10 16.09344 0 0
5:52 pm 17:52 Mostly Sunny 84 29 52 11 33 33 NW 8 13 29.8 1009 10 16.09344 0 0
6:52 pm 18:52 Mostly Sunny 82 28 52 11 35 35 NNW 7 11 29.8 1009 10 16.09344 0 0
7:52 pm 19:52 Partly Cloudy 81 27 54 12 39 39 NW 5 7 29.8 1009 10 16.09344 0 0
8:52 pm 20:52 Mostly Clear 75 24 64 18 69 69 ESE 8 13 29.83 1010 10 16.09344 0 0
9:52 pm 21:52 Clear 73 23 64 18 74 74 SSE 3 6 29.83 1010 10 16.09344 0 0
10:52 pm 22:52 Clear 72 22 64 18 78 78 Calm 29.83 1010 10 16.09344 0 0
11:52 pm 23:52 Clear 73 23 64 18 74 74 SE 3 6 29.83 1010 10 16.09344 0 0

Powered by AerisWeather